Current | Forecast
Updated: 1:30 AM CEST on October 17, 2017
Observed at Pau, France
Temperature 14°C
Humidity 94%
Dew Point 13°C
Wind North at 0 km/h
Pressure 1022 hPa (Steady)
Conditions Scattered Clouds
Visibility -
UV 0 out of 16
Clouds (FEW) : 182 m
Scattered Clouds (SCT) : 396 m
Yesterday's Maximum 30°C
Yesterday's Minimum 11°C approx.
Yesterday's Cooling Degree Days 4 approx.
Sunrise8:18 AM CEST
Sunset7:16 PM CEST
Moon Rise5:34 AM CEST
Moon Set6:30 PM CEST
Moon PhaseMoon Phase
Waning Crescent
Raw METARMETAR LFBP 162330Z AUTO 00000KT 4900 BR FEW006 SCT013 14/13 Q1022 TEMPO 1500 BR BKN005


Monday
. High: 66° F.
Tuesday
. High: 69° F.
Wednesday
. High: 55° F.
Thursday
. High: 57° F.
Friday
. High: 69° F.
Saturday
. High: 60° F.
Sunday
. High: 55° F.
Monday
. High: 69° F.

Units: English | Metric

Find the Weather for any City, State or Zipcode, or Country:

U.S. State List | Severe Weather | Tropical Storms | Ski Conditions
United States | Canada | Central America | South America | Asia | Europe | Australia | Africa | Islands

Weather Underground

© Copyright 2017
The Weather Company, LLC